createdAt,value
2018-08-03T00:00:02.532Z,25.80
2018-08-03T00:02:31.043Z,25.80
2018-08-03T00:04:59.531Z,25.80
2018-08-03T00:07:28.044Z,25.70
2018-08-03T00:09:56.542Z,25.70
2018-08-03T00:12:25.117Z,25.70
2018-08-03T00:14:53.612Z,25.70
2018-08-03T00:17:22.188Z,25.70
2018-08-03T00:19:50.652Z,25.60
2018-08-03T00:22:19.140Z,25.60
2018-08-03T00:24:47.683Z,25.60
2018-08-03T00:27:16.164Z,25.50
2018-08-03T00:29:44.692Z,25.50
2018-08-03T00:32:13.201Z,25.50
2018-08-03T00:34:41.776Z,25.50
2018-08-03T00:39:38.510Z,25.40
2018-08-03T00:42:06.992Z,25.40
2018-08-03T00:44:35.516Z,25.40
2018-08-03T00:47:04.036Z,25.30
2018-08-03T00:49:32.592Z,25.30
2018-08-03T00:52:01.073Z,25.30
2018-08-03T00:54:29.612Z,25.30
2018-08-03T00:56:58.108Z,25.30
2018-08-03T01:01:54.804Z,25.30
2018-08-03T01:04:23.304Z,25.20
2018-08-03T01:06:51.776Z,25.20
2018-08-03T01:09:20.264Z,25.20
2018-08-03T01:11:48.816Z,25.10
2018-08-03T01:14:17.360Z,25.10
2018-08-03T01:16:45.935Z,25.10
2018-08-03T01:19:15.180Z,25.00
2018-08-03T01:21:44.968Z,25.00
2018-08-03T01:24:13.529Z,25.00
2018-08-03T01:26:42.572Z,25.00
2018-08-03T01:29:11.120Z,24.90
2018-08-03T01:31:39.626Z,24.90
2018-08-03T01:34:08.157Z,24.80
2018-08-03T01:36:36.664Z,24.80
2018-08-03T01:39:07.741Z,24.80
2018-08-03T01:41:36.329Z,24.80
2018-08-03T01:44:04.872Z,24.80
2018-08-03T01:46:33.340Z,24.70
2018-08-03T01:49:01.826Z,24.70
2018-08-03T01:51:30.318Z,24.70
2018-08-03T01:56:26.963Z,24.60
2018-08-03T01:58:55.428Z,24.60
2018-08-03T02:01:23.964Z,24.50
2018-08-03T02:03:52.469Z,24.50
2018-08-03T02:06:20.988Z,24.40
2018-08-03T02:08:49.503Z,24.40
2018-08-03T02:11:18.048Z,24.40
2018-08-03T02:13:46.543Z,24.40
2018-08-03T02:16:15.053Z,24.40
2018-08-03T02:18:43.566Z,24.40
2018-08-03T02:21:12.159Z,24.40
2018-08-03T02:23:40.665Z,24.40
2018-08-03T02:26:09.203Z,24.40
2018-08-03T02:28:37.701Z,24.30
2018-08-03T02:31:06.250Z,24.30
2018-08-03T02:33:34.755Z,24.30
2018-08-03T02:36:03.248Z,24.30
2018-08-03T02:38:31.717Z,24.30
2018-08-03T02:41:00.211Z,24.30
2018-08-03T02:43:28.676Z,24.30
2018-08-03T02:45:57.172Z,24.30
2018-08-03T02:48:25.644Z,24.20
2018-08-03T02:50:54.099Z,24.20
2018-08-03T02:53:22.541Z,24.20
2018-08-03T02:55:51.055Z,24.20
2018-08-03T02:58:19.523Z,24.10
2018-08-03T03:00:47.974Z,24.20
2018-08-03T03:03:16.443Z,24.10
2018-08-03T03:05:44.896Z,24.10
2018-08-03T03:08:13.363Z,24.10
2018-08-03T03:10:41.839Z,24.00
2018-08-03T03:13:10.323Z,24.00
2018-08-03T03:15:38.793Z,24.00
2018-08-03T03:20:35.399Z,24.00
2018-08-03T03:23:03.832Z,24.00
2018-08-03T03:25:32.316Z,23.90
2018-08-03T03:30:29.163Z,23.90
2018-08-03T03:32:57.616Z,23.80
2018-08-03T03:35:26.083Z,23.80
2018-08-03T03:37:54.524Z,23.80
2018-08-03T03:40:22.984Z,23.80
2018-08-03T03:42:51.455Z,23.80
2018-08-03T03:45:19.934Z,23.80
2018-08-03T03:47:48.380Z,23.80
2018-08-03T03:50:16.891Z,23.70
2018-08-03T03:52:45.352Z,23.70
2018-08-03T03:55:13.815Z,23.70
2018-08-03T03:57:42.315Z,23.70
2018-08-03T04:00:10.780Z,23.70
2018-08-03T04:02:39.335Z,23.70
2018-08-03T04:05:08.924Z,23.60
2018-08-03T04:07:37.411Z,23.60
2018-08-03T04:10:05.927Z,23.60
2018-08-03T04:12:34.411Z,23.60
2018-08-03T04:15:02.881Z,23.60
2018-08-03T04:17:31.336Z,23.60
2018-08-03T04:22:27.975Z,23.50
2018-08-03T04:24:56.432Z,23.60
2018-08-03T04:27:24.939Z,23.60
2018-08-03T04:29:53.463Z,23.60
2018-08-03T04:32:21.943Z,23.60
2018-08-03T04:34:50.391Z,23.60
2018-08-03T04:37:18.883Z,23.60
2018-08-03T04:42:15.505Z,23.60
2018-08-03T04:44:43.920Z,23.60
2018-08-03T04:49:40.508Z,23.60
2018-08-03T04:52:09.011Z,23.60
2018-08-03T04:54:37.467Z,23.70
2018-08-03T04:57:05.949Z,23.60
2018-08-03T04:59:34.428Z,23.60
2018-08-03T05:02:02.900Z,23.70
2018-08-03T05:04:31.347Z,23.70
2018-08-03T05:06:59.849Z,23.70
2018-08-03T05:09:28.256Z,23.70
2018-08-03T05:11:56.703Z,23.80
2018-08-03T05:19:21.479Z,23.80
2018-08-03T05:21:49.917Z,23.80
2018-08-03T05:24:18.436Z,23.80
2018-08-03T05:26:46.872Z,23.80
2018-08-03T05:34:11.687Z,23.80
2018-08-03T05:36:40.159Z,23.80
2018-08-03T05:39:10.515Z,23.80
2018-08-03T05:41:39.603Z,23.80
2018-08-03T05:46:36.772Z,23.90
2018-08-03T05:51:33.803Z,23.90
2018-08-03T05:54:02.295Z,23.90
2018-08-03T05:56:30.748Z,24.00
2018-08-03T05:58:59.231Z,24.10
2018-08-03T06:01:27.674Z,24.20
2018-08-03T06:06:24.314Z,24.20
2018-08-03T06:11:20.923Z,24.30
2018-08-03T06:13:49.419Z,24.30
2018-08-03T06:16:17.892Z,24.40
2018-08-03T06:21:14.476Z,24.50
2018-08-03T06:23:42.931Z,24.50
2018-08-03T06:26:11.364Z,24.60
2018-08-03T06:28:39.836Z,24.60
2018-08-03T06:31:08.327Z,24.70
2018-08-03T06:33:36.823Z,24.70
2018-08-03T06:36:05.387Z,24.80
2018-08-03T06:38:33.836Z,24.80
2018-08-03T06:41:02.326Z,24.90
2018-08-03T06:43:30.753Z,24.90
2018-08-03T06:45:59.244Z,25.00
2018-08-03T06:48:27.766Z,25.00
2018-08-03T06:50:56.384Z,25.10
2018-08-03T06:53:24.884Z,25.20
2018-08-03T06:55:53.351Z,25.20
2018-08-03T06:58:21.827Z,25.30
2018-08-03T07:00:50.360Z,25.30
2018-08-03T07:05:46.984Z,25.50
2018-08-03T07:08:15.486Z,25.60
2018-08-03T07:10:44.123Z,25.60
2018-08-03T07:13:12.572Z,25.60
2018-08-03T07:15:41.031Z,25.70
2018-08-03T07:18:09.467Z,25.80
2018-08-03T07:23:06.154Z,25.90
2018-08-03T07:25:34.611Z,25.90
2018-08-03T07:28:03.546Z,26.00
2018-08-03T07:30:32.050Z,26.10
2018-08-03T07:33:00.512Z,26.10
2018-08-03T07:35:28.984Z,26.10
2018-08-03T07:37:57.428Z,26.20
2018-08-03T07:40:26.296Z,26.30
2018-08-03T07:42:54.799Z,26.40
2018-08-03T07:45:23.236Z,26.40
2018-08-03T07:47:51.671Z,26.50
2018-08-03T07:50:20.204Z,26.50
2018-08-03T07:52:48.900Z,26.60
2018-08-03T07:55:17.583Z,26.60
2018-08-03T07:57:46.035Z,26.70
2018-08-03T08:00:14.499Z,26.80
2018-08-03T08:02:42.932Z,26.80
2018-08-03T08:05:11.412Z,26.90
2018-08-03T08:10:08.024Z,27.10
2018-08-03T08:12:36.533Z,27.10
2018-08-03T08:15:05.546Z,27.20
2018-08-03T08:17:34.041Z,27.30
2018-08-03T08:20:02.503Z,27.40
2018-08-03T08:22:31.008Z,27.40
2018-08-03T08:27:27.643Z,27.50
2018-08-03T08:29:56.232Z,27.60
2018-08-03T08:32:24.692Z,27.70
2018-08-03T08:34:53.124Z,27.70
2018-08-03T08:37:21.588Z,27.80
2018-08-03T08:39:50.036Z,27.90
2018-08-03T08:42:18.488Z,28.00
2018-08-03T08:44:46.931Z,28.10
2018-08-03T08:49:43.554Z,28.20
2018-08-03T08:52:11.996Z,28.30
2018-08-03T08:54:40.495Z,28.40
2018-08-03T08:59:34.778Z,28.50
2018-08-03T09:02:03.281Z,28.60
2018-08-03T09:04:31.761Z,28.60
2018-08-03T09:07:00.207Z,28.80
2018-08-03T09:09:28.636Z,28.80
2018-08-03T09:11:57.096Z,28.90
2018-08-03T09:14:25.547Z,28.90
2018-08-03T09:16:53.999Z,28.90
2018-08-03T09:19:22.417Z,29.00
2018-08-03T09:21:50.919Z,29.10
2018-08-03T09:24:19.356Z,29.10
2018-08-03T09:26:47.799Z,29.30
2018-08-03T09:29:16.216Z,29.30
2018-08-03T09:34:12.789Z,29.50
2018-08-03T09:36:41.244Z,29.50
2018-08-03T09:39:10.335Z,29.60
2018-08-03T09:41:38.795Z,29.70
2018-08-03T09:44:07.595Z,29.70
2018-08-03T09:46:36.100Z,29.80
2018-08-03T09:49:04.616Z,29.90
2018-08-03T09:51:33.756Z,30.10
2018-08-03T09:54:02.219Z,30.20
2018-08-03T09:56:30.666Z,30.30
2018-08-03T09:58:59.135Z,30.40
2018-08-03T10:01:27.559Z,30.50
2018-08-03T10:03:56.019Z,30.70
2018-08-03T10:06:24.439Z,30.80
2018-08-03T10:08:52.888Z,31.00
2018-08-03T10:11:21.307Z,31.30
2018-08-03T10:13:49.759Z,31.60
2018-08-03T10:16:18.195Z,31.80
2018-08-03T10:18:46.648Z,32.00
2018-08-03T10:21:15.095Z,32.30
2018-08-03T10:23:43.565Z,32.50
2018-08-03T10:26:11.988Z,32.70
2018-08-03T10:28:40.431Z,32.90
2018-08-03T10:31:08.888Z,33.10
2018-08-03T10:33:37.339Z,33.40
2018-08-03T10:38:33.967Z,33.80
2018-08-03T10:41:02.415Z,34.00
2018-08-03T10:43:30.919Z,34.30
2018-08-03T10:45:59.361Z,34.60
2018-08-03T10:48:27.825Z,34.80
2018-08-03T10:50:56.258Z,35.10
2018-08-03T10:53:24.735Z,35.50
2018-08-03T10:55:53.225Z,35.70
2018-08-03T10:58:21.746Z,36.10
2018-08-03T11:00:50.228Z,36.50
2018-08-03T11:03:18.683Z,36.50
2018-08-03T11:05:47.106Z,36.70
2018-08-03T11:08:15.572Z,36.90
2018-08-03T11:13:12.116Z,37.40
2018-08-03T11:15:40.571Z,37.90
2018-08-03T11:18:09.007Z,38.20
2018-08-03T11:20:37.475Z,38.60
2018-08-03T11:23:05.950Z,38.90
2018-08-03T11:28:02.523Z,39.50
2018-08-03T11:30:31.014Z,40.00
2018-08-03T11:32:59.435Z,40.40
2018-08-03T11:35:27.916Z,40.70
2018-08-03T11:37:56.351Z,41.50
2018-08-03T11:40:24.815Z,41.10
2018-08-03T11:42:53.244Z,41.40
2018-08-03T11:45:21.719Z,41.90
2018-08-03T11:47:50.148Z,42.30
2018-08-03T11:50:18.599Z,43.00
2018-08-03T11:52:47.064Z,43.00
2018-08-03T11:55:15.507Z,43.50
2018-08-03T11:57:43.927Z,44.50
2018-08-03T12:00:12.420Z,44.80
2018-08-03T12:02:40.860Z,45.90
2018-08-03T12:05:09.331Z,46.20
2018-08-03T12:07:37.766Z,46.60
2018-08-03T12:10:06.340Z,48.20
2018-08-03T12:12:34.839Z,49.40
2018-08-03T12:15:03.303Z,50.40
2018-08-03T12:17:31.736Z,51.60
2018-08-03T12:20:00.196Z,51.80
2018-08-03T12:24:56.852Z,54.00
2018-08-03T12:29:53.444Z,55.40
2018-08-03T12:32:21.897Z,56.40
2018-08-03T12:37:18.456Z,55.90
2018-08-03T12:39:46.900Z,56.30
2018-08-03T12:42:15.319Z,56.70
2018-08-03T12:44:43.743Z,57.20
2018-08-03T12:47:12.207Z,57.60
2018-08-03T12:49:40.624Z,57.50
2018-08-03T12:52:09.135Z,57.40
2018-08-03T12:54:37.547Z,58.00
2018-08-03T12:57:06.091Z,58.50
2018-08-03T12:59:34.572Z,58.30
2018-08-03T13:02:03.023Z,58.10
2018-08-03T13:04:31.452Z,58.00
2018-08-03T13:06:59.904Z,57.80
2018-08-03T13:09:28.343Z,57.50
2018-08-03T13:11:56.815Z,57.10
2018-08-03T13:14:25.243Z,57.10
2018-08-03T13:16:53.688Z,57.10
2018-08-03T13:19:22.120Z,56.70
2018-08-03T13:21:50.591Z,56.40
2018-08-03T13:24:19.011Z,56.40
2018-08-03T13:26:47.495Z,56.20
2018-08-03T13:29:15.936Z,56.00
2018-08-03T13:31:44.367Z,55.60
2018-08-03T13:34:12.824Z,55.40
2018-08-03T13:36:41.283Z,54.60
2018-08-03T13:39:09.786Z,53.80
2018-08-03T13:41:38.268Z,53.20
2018-08-03T13:44:06.783Z,52.70
2018-08-03T13:46:35.291Z,51.60
2018-08-03T13:49:03.755Z,50.60
2018-08-03T13:51:32.220Z,49.40
2018-08-03T13:54:00.684Z,48.80
2018-08-03T13:56:29.131Z,48.40
2018-08-03T13:58:57.572Z,48.00
2018-08-03T14:01:38.019Z,47.90
2018-08-03T14:04:06.636Z,47.70
2018-08-03T14:06:35.031Z,47.30
2018-08-03T14:09:04.547Z,47.30
2018-08-03T14:11:33.028Z,47.60
2018-08-03T14:14:01.456Z,47.50
2018-08-03T14:16:29.920Z,46.90
2018-08-03T14:18:58.360Z,46.50
2018-08-03T14:21:26.804Z,46.30
2018-08-03T14:23:55.258Z,46.10
2018-08-03T14:26:23.703Z,45.90
2018-08-03T14:28:52.135Z,45.80
2018-08-03T14:31:20.643Z,45.40
2018-08-03T14:33:49.063Z,45.20
2018-08-03T14:41:13.937Z,44.20
2018-08-03T14:43:42.335Z,43.80
2018-08-03T14:46:10.828Z,43.60
2018-08-03T14:48:39.291Z,43.30
2018-08-03T14:51:07.715Z,43.20
2018-08-03T14:56:04.300Z,42.90
2018-08-03T14:58:32.775Z,42.80
2018-08-03T15:01:01.304Z,42.80
2018-08-03T15:03:29.807Z,42.70
2018-08-03T15:08:26.372Z,42.60
2018-08-03T15:10:54.815Z,42.30
2018-08-03T15:13:23.289Z,42.30
2018-08-03T15:20:47.956Z,41.80
2018-08-03T15:25:44.522Z,41.70
2018-08-03T15:28:13.015Z,41.70
2018-08-03T15:30:41.476Z,41.50
2018-08-03T15:33:09.937Z,41.50
2018-08-03T15:35:38.403Z,41.50
2018-08-03T15:38:07.012Z,41.50
2018-08-03T15:40:35.443Z,41.40
2018-08-03T15:43:03.908Z,41.40
2018-08-03T15:45:32.647Z,41.30
2018-08-03T15:48:01.089Z,41.30
2018-08-03T15:50:29.535Z,41.20
2018-08-03T15:52:58.020Z,40.90
2018-08-03T15:55:26.475Z,40.80
2018-08-03T15:57:54.926Z,40.70
2018-08-03T16:00:23.360Z,40.60
2018-08-03T16:02:51.815Z,40.60
2018-08-03T16:07:48.371Z,40.70
2018-08-03T16:10:16.798Z,40.60
2018-08-03T16:12:45.330Z,40.40
2018-08-03T16:15:13.788Z,40.30
2018-08-03T16:17:42.252Z,40.20
2018-08-03T16:20:10.684Z,40.30
2018-08-03T16:25:07.307Z,40.30
2018-08-03T16:27:35.762Z,40.20
2018-08-03T16:30:04.944Z,40.20
2018-08-03T16:32:33.489Z,40.20
2018-08-03T16:35:01.891Z,40.10
2018-08-03T16:37:30.362Z,40.00
2018-08-03T16:42:26.916Z,39.80
2018-08-03T16:47:23.499Z,39.70
2018-08-03T16:49:51.995Z,39.60
2018-08-03T16:52:20.479Z,39.50
2018-08-03T16:54:48.917Z,39.40
2018-08-03T16:57:17.336Z,39.40
2018-08-03T16:59:45.795Z,39.20
2018-08-03T17:02:14.272Z,39.20
2018-08-03T17:04:42.764Z,39.00
2018-08-03T17:07:11.205Z,38.80
2018-08-03T17:09:39.639Z,38.70
2018-08-03T17:12:08.079Z,38.60
2018-08-03T17:14:36.519Z,38.40
2018-08-03T17:17:04.964Z,38.30
2018-08-03T17:19:33.407Z,38.20
2018-08-03T17:22:01.864Z,38.00
2018-08-03T17:24:30.315Z,37.90
2018-08-03T17:26:58.759Z,37.60
2018-08-03T17:29:27.207Z,37.30
2018-08-03T17:31:55.721Z,37.30
2018-08-03T17:34:24.156Z,37.10
2018-08-03T17:36:52.634Z,37.10
2018-08-03T17:39:21.066Z,36.80
2018-08-03T17:44:17.658Z,36.70
2018-08-03T17:46:46.110Z,36.50
2018-08-03T17:51:42.672Z,36.40
2018-08-03T17:54:11.153Z,36.30
2018-08-03T17:56:39.579Z,36.30
2018-08-03T17:59:08.016Z,36.20
2018-08-03T18:01:36.451Z,36.10
2018-08-03T18:04:04.903Z,36.00
2018-08-03T18:06:33.340Z,35.90
2018-08-03T18:09:01.792Z,35.80
2018-08-03T18:11:30.231Z,35.80
2018-08-03T18:13:58.656Z,35.70
2018-08-03T18:16:27.115Z,35.60
2018-08-03T18:18:55.556Z,35.50
2018-08-03T18:21:24.015Z,35.40
2018-08-03T18:23:52.464Z,35.30
2018-08-03T18:26:20.923Z,35.30
2018-08-03T18:28:49.417Z,35.10
2018-08-03T18:31:17.867Z,35.10
2018-08-03T18:33:46.306Z,34.90
2018-08-03T18:36:14.919Z,34.80
2018-08-03T18:41:11.499Z,34.50
2018-08-03T18:43:39.943Z,34.40
2018-08-03T18:46:08.453Z,34.20
2018-08-03T18:48:36.841Z,34.20
2018-08-03T18:51:05.560Z,34.00
2018-08-03T18:53:33.972Z,33.90
2018-08-03T18:58:30.571Z,33.50
2018-08-03T19:00:59.051Z,33.40
2018-08-03T19:03:27.496Z,33.30
2018-08-03T19:08:24.070Z,33.10
2018-08-03T19:10:52.545Z,32.90
2018-08-03T19:13:20.975Z,32.80
2018-08-03T19:15:49.669Z,32.70
2018-08-03T19:18:18.221Z,32.50
2018-08-03T19:20:46.694Z,32.50
2018-08-03T19:23:15.151Z,32.40
2018-08-03T19:25:43.640Z,32.40
2018-08-03T19:28:12.107Z,32.20
2018-08-03T19:30:40.543Z,32.10
2018-08-03T19:33:09.082Z,32.10
2018-08-03T19:35:37.507Z,32.10
2018-08-03T19:38:05.984Z,32.00
2018-08-03T19:40:34.403Z,32.00
2018-08-03T19:45:30.974Z,31.90
2018-08-03T19:47:59.427Z,31.90
2018-08-03T19:50:27.867Z,31.80
2018-08-03T19:52:56.335Z,31.70
2018-08-03T19:55:24.784Z,31.70
2018-08-03T20:00:21.364Z,31.40
2018-08-03T20:02:49.838Z,31.30
2018-08-03T20:05:18.329Z,31.20
2018-08-03T20:07:46.818Z,31.10
2018-08-03T20:10:15.344Z,31.00
2018-08-03T20:12:43.795Z,31.00
2018-08-03T20:15:12.236Z,30.80
2018-08-03T20:17:40.696Z,30.80
2018-08-03T20:20:09.168Z,30.70
2018-08-03T20:22:37.635Z,30.60
2018-08-03T20:25:06.469Z,30.50
2018-08-03T20:27:34.952Z,30.50
2018-08-03T20:30:03.452Z,30.50
2018-08-03T20:32:31.940Z,30.50
2018-08-03T20:35:00.387Z,30.40
2018-08-03T20:37:28.875Z,30.30
2018-08-03T20:42:25.475Z,30.20
2018-08-03T20:44:53.972Z,30.10
2018-08-03T20:47:22.427Z,30.00
2018-08-03T20:49:50.896Z,30.00
2018-08-03T20:52:19.467Z,30.00
2018-08-03T20:54:47.968Z,30.00
2018-08-03T20:57:16.399Z,30.00
2018-08-03T20:59:45.303Z,29.90
2018-08-03T21:04:41.891Z,29.90
2018-08-03T21:07:10.324Z,29.90
2018-08-03T21:09:38.796Z,29.90
2018-08-03T21:12:07.273Z,29.80
2018-08-03T21:14:35.760Z,29.70
2018-08-03T21:17:04.223Z,29.60
2018-08-03T21:19:32.689Z,29.50
2018-08-03T21:22:01.115Z,29.40
2018-08-03T21:24:29.572Z,29.30
2018-08-03T21:26:57.999Z,29.30
2018-08-03T21:29:26.459Z,29.20
2018-08-03T21:34:23.026Z,29.10
2018-08-03T21:36:51.466Z,29.00
2018-08-03T21:39:19.967Z,29.00
2018-08-03T21:41:48.396Z,28.90
2018-08-03T21:44:16.891Z,29.00
2018-08-03T21:46:45.311Z,28.90
2018-08-03T21:49:13.763Z,28.80
2018-08-03T21:51:42.191Z,28.80
2018-08-03T21:54:10.646Z,28.70
2018-08-03T21:56:39.131Z,28.70
2018-08-03T21:59:07.587Z,28.70
2018-08-03T22:01:36.051Z,28.70
2018-08-03T22:04:04.526Z,28.50
2018-08-03T22:06:32.987Z,28.50
2018-08-03T22:09:01.495Z,28.40
2018-08-03T22:11:29.980Z,28.40
2018-08-03T22:16:32.307Z,28.40
2018-08-03T22:19:00.846Z,28.40
2018-08-03T22:21:29.204Z,28.30
2018-08-03T22:23:57.679Z,28.30
2018-08-03T22:26:26.185Z,28.30
2018-08-03T22:28:54.656Z,28.30
2018-08-03T22:31:23.098Z,28.20
2018-08-03T22:33:51.632Z,28.20
2018-08-03T22:36:20.083Z,28.10
2018-08-03T22:41:16.684Z,28.00
2018-08-03T22:43:45.116Z,27.90
2018-08-03T22:46:13.571Z,27.90
2018-08-03T22:48:42.231Z,27.90
2018-08-03T22:51:10.711Z,27.90
2018-08-03T22:53:39.155Z,27.90
2018-08-03T22:56:07.625Z,27.90
2018-08-03T22:58:36.064Z,27.90
2018-08-03T23:01:04.598Z,27.90
2018-08-03T23:03:32.997Z,27.90
2018-08-03T23:06:01.453Z,27.90
2018-08-03T23:08:29.903Z,27.80
2018-08-03T23:10:58.379Z,27.80
2018-08-03T23:13:26.819Z,27.80
2018-08-03T23:15:56.735Z,27.80
2018-08-03T23:18:25.245Z,27.80
2018-08-03T23:20:53.786Z,27.80
2018-08-03T23:23:22.253Z,27.80
2018-08-03T23:25:51.312Z,27.70
2018-08-03T23:28:19.811Z,27.70
2018-08-03T23:33:16.675Z,27.60
2018-08-03T23:35:45.153Z,27.60
2018-08-03T23:38:13.587Z,27.60
2018-08-03T23:40:42.095Z,27.60
2018-08-03T23:43:10.656Z,27.50
2018-08-03T23:45:39.103Z,27.50
2018-08-03T23:48:07.540Z,27.50
2018-08-03T23:50:36.044Z,27.50
2018-08-03T23:55:32.639Z,27.40
2018-08-03T23:58:01.080Z,27.40
